createdAt,value
2022-12-25T00:01:22.362Z,16.50
2022-12-25T00:04:07.333Z,16.89
2022-12-25T00:06:52.686Z,17.39
2022-12-25T00:09:37.508Z,16.48
2022-12-25T00:12:22.396Z,16.14
2022-12-25T00:15:07.326Z,15.56
2022-12-25T00:17:52.197Z,15.30
2022-12-25T00:20:37.214Z,15.06
2022-12-25T00:23:22.065Z,14.73
2022-12-25T00:26:07.031Z,14.44
2022-12-25T00:28:51.682Z,13.87
2022-12-25T00:31:36.776Z,14.98
2022-12-25T00:34:21.637Z,15.26
2022-12-25T00:37:06.400Z,15.74
2022-12-25T00:39:51.285Z,15.60
2022-12-25T00:42:36.204Z,16.76
2022-12-25T00:45:21.258Z,16.27
2022-12-25T00:48:06.045Z,17.08
2022-12-25T00:50:51.025Z,16.21
2022-12-25T00:53:35.957Z,16.24
2022-12-25T00:56:20.902Z,16.63
2022-12-25T00:59:05.750Z,16.35
2022-12-25T01:01:51.049Z,15.13
2022-12-25T01:04:36.185Z,14.27
2022-12-25T01:07:21.185Z,13.19
2022-12-25T01:10:06.178Z,12.94
2022-12-25T01:12:51.221Z,11.91
2022-12-25T01:15:36.261Z,11.54
2022-12-25T01:18:21.162Z,11.77
2022-12-25T01:21:06.257Z,12.78
2022-12-25T01:23:51.119Z,13.11
2022-12-25T01:26:36.269Z,12.98
2022-12-25T01:29:21.215Z,12.85
2022-12-25T01:32:06.164Z,12.27
2022-12-25T01:34:55.875Z,11.39
2022-12-25T01:37:41.349Z,10.89
2022-12-25T01:40:26.334Z,10.22
2022-12-25T01:43:15.529Z,10.30
2022-12-25T01:46:03.862Z,10.10
2022-12-25T01:48:49.062Z,10.40
2022-12-25T01:51:33.963Z,10.08
2022-12-25T01:54:18.860Z,9.93
2022-12-25T01:57:03.676Z,10.23
2022-12-25T01:59:48.713Z,10.53
2022-12-25T02:02:33.574Z,10.10
2022-12-25T02:05:18.912Z,10.05
2022-12-25T02:08:03.727Z,10.66
2022-12-25T02:10:48.706Z,10.08
2022-12-25T02:13:33.496Z,9.70
2022-12-25T02:16:18.616Z,9.97
2022-12-25T02:19:03.393Z,9.61
2022-12-25T02:21:48.301Z,9.24
2022-12-25T02:24:33.273Z,9.35
2022-12-25T02:27:18.137Z,9.15
2022-12-25T02:30:02.918Z,8.93
2022-12-25T02:32:47.733Z,9.00
2022-12-25T02:35:32.688Z,9.02
2022-12-25T02:38:17.468Z,9.65
2022-12-25T02:41:02.352Z,8.84
2022-12-25T02:43:47.172Z,9.42
2022-12-25T02:46:32.135Z,9.38
2022-12-25T02:49:16.979Z,9.58
2022-12-25T02:52:01.783Z,9.59
2022-12-25T02:54:46.710Z,9.68
2022-12-25T02:57:31.625Z,9.93
2022-12-25T03:00:16.473Z,10.29
2022-12-25T03:03:01.439Z,10.24
2022-12-25T03:05:46.236Z,9.77
2022-12-25T03:08:31.144Z,10.74
2022-12-25T03:11:16.075Z,11.61
2022-12-25T03:14:01.134Z,11.53
2022-12-25T03:16:46.035Z,11.97
2022-12-25T03:19:30.947Z,11.62
2022-12-25T03:22:15.788Z,12.50
2022-12-25T03:25:00.738Z,12.52
2022-12-25T03:27:45.669Z,12.40
2022-12-25T03:30:30.589Z,12.24
2022-12-25T03:33:43.168Z,12.39
2022-12-25T03:36:20.377Z,12.21
2022-12-25T03:39:05.407Z,12.61
2022-12-25T03:41:50.260Z,12.13
2022-12-25T03:44:35.173Z,12.01
2022-12-25T03:47:20.008Z,13.07
2022-12-25T03:50:04.985Z,12.36
2022-12-25T03:52:49.913Z,12.38
2022-12-25T03:55:34.673Z,11.35
2022-12-25T03:58:19.642Z,10.93
2022-12-25T04:01:04.504Z,10.03
2022-12-25T04:03:49.434Z,9.33
2022-12-25T04:06:34.218Z,9.40
2022-12-25T04:09:19.093Z,9.07
2022-12-25T04:12:03.948Z,9.26
2022-12-25T04:14:48.917Z,9.03
2022-12-25T04:17:33.773Z,8.82
2022-12-25T04:20:18.547Z,8.55
2022-12-25T04:23:03.446Z,9.87
2022-12-25T04:25:48.335Z,9.96
2022-12-25T04:28:33.318Z,9.36
2022-12-25T04:31:18.187Z,9.75
2022-12-25T04:34:03.537Z,9.68
2022-12-25T04:36:48.296Z,10.06
2022-12-25T04:39:33.233Z,9.70
2022-12-25T04:42:18.300Z,9.29
2022-12-25T04:45:03.119Z,9.12
2022-12-25T04:47:48.008Z,9.10
2022-12-25T04:50:32.822Z,8.99
2022-12-25T04:53:17.698Z,8.46
2022-12-25T04:56:02.577Z,7.73
2022-12-25T04:58:47.589Z,7.62
2022-12-25T05:01:32.496Z,7.67
2022-12-25T05:04:17.663Z,7.24
2022-12-25T05:07:02.669Z,7.07
2022-12-25T05:09:47.500Z,6.51
2022-12-25T05:12:32.450Z,6.28
2022-12-25T05:15:17.245Z,6.62
2022-12-25T05:18:02.082Z,7.15
2022-12-25T05:20:46.986Z,7.01
2022-12-25T05:23:31.910Z,6.44
2022-12-25T05:26:16.837Z,6.38
2022-12-25T05:29:01.690Z,6.61
2022-12-25T05:31:46.651Z,6.69
2022-12-25T05:34:31.478Z,6.50
2022-12-25T05:37:16.443Z,5.93
2022-12-25T05:40:01.254Z,5.86
2022-12-25T05:42:46.176Z,5.78
2022-12-25T05:45:30.868Z,5.63
2022-12-25T05:48:15.949Z,5.42
2022-12-25T05:51:00.862Z,5.66
2022-12-25T05:53:45.789Z,5.47
2022-12-25T05:56:30.676Z,5.54
2022-12-25T05:59:15.527Z,5.61
2022-12-25T06:02:00.705Z,5.57
2022-12-25T06:04:45.976Z,5.62
2022-12-25T06:07:30.876Z,5.29
2022-12-25T06:10:15.738Z,5.56
2022-12-25T06:13:00.673Z,5.81
2022-12-25T06:15:45.579Z,6.07
2022-12-25T06:18:30.407Z,5.95
2022-12-25T06:21:15.433Z,5.91
2022-12-25T06:24:00.376Z,6.11
2022-12-25T06:26:45.737Z,6.29
2022-12-25T06:29:30.559Z,6.13
2022-12-25T06:32:15.529Z,5.99
2022-12-25T06:35:00.346Z,5.97
2022-12-25T06:37:45.303Z,6.07
2022-12-25T06:40:30.460Z,5.92
2022-12-25T06:43:15.295Z,6.09
2022-12-25T06:46:00.365Z,6.43
2022-12-25T06:48:45.059Z,6.21
2022-12-25T06:51:29.997Z,5.91
2022-12-25T06:54:14.903Z,5.96
2022-12-25T06:56:59.722Z,5.96
2022-12-25T06:59:48.436Z,6.18
2022-12-25T07:02:36.444Z,6.15
2022-12-25T07:05:21.749Z,5.91
2022-12-25T07:08:06.641Z,5.76
2022-12-25T07:10:51.550Z,5.60
2022-12-25T07:13:36.646Z,5.66
2022-12-25T07:16:21.595Z,5.83
2022-12-25T07:19:06.901Z,6.78
2022-12-25T07:21:51.797Z,8.99
2022-12-25T07:24:36.747Z,9.18
2022-12-25T07:27:21.619Z,8.79
2022-12-25T07:30:06.527Z,8.75
2022-12-25T07:32:51.437Z,8.86
2022-12-25T07:35:36.125Z,8.26
2022-12-25T07:38:21.065Z,8.12
2022-12-25T07:41:05.898Z,8.31
2022-12-25T07:43:50.915Z,8.90
2022-12-25T07:46:35.740Z,9.35
2022-12-25T07:49:20.604Z,9.32
2022-12-25T07:52:05.496Z,9.95
2022-12-25T07:54:50.487Z,9.90
2022-12-25T07:57:35.380Z,10.21
2022-12-25T08:00:20.341Z,9.69
2022-12-25T08:03:05.513Z,9.97
2022-12-25T08:05:50.485Z,10.21
2022-12-25T08:08:35.481Z,9.78
2022-12-25T08:11:20.313Z,9.69
2022-12-25T08:14:05.246Z,9.56
2022-12-25T08:16:50.195Z,10.23
2022-12-25T08:19:35.060Z,10.66
2022-12-25T08:22:20.152Z,10.57
2022-12-25T08:25:05.048Z,10.29
2022-12-25T08:27:50.051Z,10.21
2022-12-25T08:30:35.032Z,9.34
2022-12-25T08:33:19.883Z,9.65
2022-12-25T08:36:04.668Z,9.40
2022-12-25T08:38:49.540Z,8.80
2022-12-25T08:41:34.523Z,9.76
2022-12-25T08:44:19.437Z,9.71
2022-12-25T08:47:04.389Z,9.49
2022-12-25T08:49:49.284Z,9.75
2022-12-25T08:52:34.778Z,9.72
2022-12-25T08:55:19.672Z,9.63
2022-12-25T08:58:04.786Z,9.86
2022-12-25T09:00:49.606Z,10.11
2022-12-25T09:03:34.596Z,10.04
2022-12-25T09:06:19.316Z,9.36
2022-12-25T09:09:04.225Z,9.64
2022-12-25T09:11:49.041Z,9.86
2022-12-25T09:14:33.947Z,10.25
2022-12-25T09:17:19.002Z,10.52
2022-12-25T09:20:03.753Z,10.60
2022-12-25T09:22:48.641Z,10.50
2022-12-25T09:25:33.528Z,10.87
2022-12-25T09:28:18.424Z,10.82
2022-12-25T09:31:03.449Z,11.41
2022-12-25T09:33:48.273Z,11.38
2022-12-25T09:36:33.286Z,9.96
2022-12-25T09:39:18.110Z,9.82
2022-12-25T09:42:03.120Z,10.25
2022-12-25T09:44:48.040Z,9.82
2022-12-25T09:47:33.030Z,9.65
2022-12-25T09:50:18.164Z,10.32
2022-12-25T09:53:03.021Z,10.25
2022-12-25T09:55:47.979Z,10.84
2022-12-25T09:58:32.953Z,10.91
2022-12-25T10:01:18.040Z,10.54
2022-12-25T10:04:03.318Z,10.74
2022-12-25T10:06:48.258Z,10.52
2022-12-25T10:09:33.013Z,11.12
2022-12-25T10:12:17.874Z,12.47
2022-12-25T10:15:02.688Z,13.41
2022-12-25T10:17:47.608Z,13.47
2022-12-25T10:20:32.512Z,13.85
2022-12-25T10:23:17.535Z,14.63
2022-12-25T10:26:02.506Z,14.50
2022-12-25T10:28:47.333Z,14.53
2022-12-25T10:31:32.461Z,14.69
2022-12-25T10:34:17.289Z,14.31
2022-12-25T10:37:02.297Z,14.22
2022-12-25T10:39:47.311Z,19.77
2022-12-25T10:42:32.494Z,16.43
2022-12-25T10:45:17.967Z,14.29
2022-12-25T10:48:07.065Z,13.83
2022-12-25T10:50:52.860Z,14.85
2022-12-25T10:53:37.746Z,13.58
2022-12-25T10:56:23.032Z,14.11
2022-12-25T10:59:08.100Z,13.65
2022-12-25T11:01:55.533Z,12.26
2022-12-25T11:04:40.883Z,13.07
2022-12-25T11:07:25.834Z,12.82
2022-12-25T11:10:10.856Z,12.78
2022-12-25T11:12:55.869Z,11.38
2022-12-25T11:15:40.894Z,10.16
2022-12-25T11:18:26.192Z,9.93
2022-12-25T11:21:11.052Z,12.34
2022-12-25T11:23:55.913Z,12.33
2022-12-25T11:26:40.754Z,11.60
2022-12-25T11:29:25.731Z,11.91
2022-12-25T11:32:10.689Z,11.55
2022-12-25T11:34:55.614Z,12.52
2022-12-25T11:37:40.632Z,11.21
2022-12-25T11:40:25.466Z,10.14
2022-12-25T11:43:10.381Z,9.10
2022-12-25T11:45:55.160Z,9.51
2022-12-25T11:48:39.955Z,9.44
2022-12-25T11:51:24.832Z,8.80
2022-12-25T11:54:09.723Z,9.86
2022-12-25T11:56:54.595Z,11.50
2022-12-25T11:59:39.372Z,10.84
2022-12-25T12:02:24.488Z,10.70
2022-12-25T12:05:09.663Z,10.59
2022-12-25T12:07:54.764Z,10.48
2022-12-25T12:10:39.576Z,12.85
2022-12-25T12:13:24.569Z,12.99
2022-12-25T12:16:09.436Z,12.36
2022-12-25T12:18:54.249Z,11.36
2022-12-25T12:21:39.752Z,11.09
2022-12-25T12:24:24.488Z,11.85
2022-12-25T12:27:09.393Z,12.37
2022-12-25T12:29:54.225Z,12.49
2022-12-25T12:32:39.118Z,11.57
2022-12-25T12:35:24.026Z,10.81
2022-12-25T12:38:09.000Z,10.24
2022-12-25T12:40:53.997Z,10.59
2022-12-25T12:43:38.905Z,10.93
2022-12-25T12:46:30.198Z,10.61
2022-12-25T12:49:16.366Z,11.60
2022-12-25T12:52:01.166Z,13.04
2022-12-25T12:54:46.168Z,12.99
2022-12-25T12:57:31.033Z,14.21
2022-12-25T13:00:15.883Z,14.44
2022-12-25T13:03:00.977Z,15.48
2022-12-25T13:05:46.321Z,14.20
2022-12-25T13:08:31.144Z,13.22
2022-12-25T13:11:15.885Z,14.23
2022-12-25T13:14:00.762Z,13.72
2022-12-25T13:16:46.105Z,13.97
2022-12-25T13:19:31.053Z,14.56
2022-12-25T13:22:15.925Z,14.42
2022-12-25T13:25:00.834Z,14.79
2022-12-25T13:27:45.725Z,15.51
2022-12-25T13:30:30.545Z,15.15
2022-12-25T13:33:15.498Z,16.06
2022-12-25T13:36:00.336Z,15.49
2022-12-25T13:38:45.256Z,15.51
2022-12-25T13:41:29.974Z,15.55
2022-12-25T13:44:14.974Z,14.82
2022-12-25T13:46:59.844Z,14.79
2022-12-25T13:49:44.843Z,15.42
2022-12-25T13:52:29.804Z,14.76
2022-12-25T13:55:14.803Z,14.61
2022-12-25T13:57:59.643Z,15.07
2022-12-25T14:00:44.688Z,14.72
2022-12-25T14:03:29.776Z,14.79
2022-12-25T14:06:14.579Z,14.35
2022-12-25T14:08:59.834Z,14.96
2022-12-25T14:11:44.947Z,14.88
2022-12-25T14:14:29.836Z,15.39
2022-12-25T14:17:14.799Z,15.37
2022-12-25T14:20:04.002Z,15.29
2022-12-25T14:22:53.224Z,15.18
2022-12-25T14:25:38.238Z,15.62
2022-12-25T14:28:22.977Z,16.18
2022-12-25T14:31:08.087Z,14.93
2022-12-25T14:33:53.446Z,15.07
2022-12-25T14:36:38.423Z,17.17
2022-12-25T14:39:23.205Z,16.80
2022-12-25T14:42:08.107Z,16.55
2022-12-25T14:44:52.981Z,16.23
2022-12-25T14:47:37.703Z,15.87
2022-12-25T14:50:22.653Z,15.75
2022-12-25T14:53:07.448Z,15.97
2022-12-25T14:55:53.011Z,15.72
2022-12-25T14:58:38.070Z,16.59
2022-12-25T15:01:23.050Z,16.58
2022-12-25T15:04:08.476Z,16.53
2022-12-25T15:06:53.378Z,17.31
2022-12-25T15:09:38.513Z,18.29
2022-12-25T15:12:23.465Z,17.63
2022-12-25T15:15:08.401Z,17.26
2022-12-25T15:17:53.220Z,15.98
2022-12-25T15:20:38.243Z,15.35
2022-12-25T15:23:23.028Z,14.03
2022-12-25T15:26:08.000Z,14.09
2022-12-25T15:28:52.935Z,14.85
2022-12-25T15:31:37.882Z,14.70
2022-12-25T15:34:22.813Z,15.09
2022-12-25T15:37:07.609Z,16.15
2022-12-25T15:39:52.521Z,15.09
2022-12-25T15:42:38.186Z,15.44
2022-12-25T15:45:23.120Z,16.25
2022-12-25T15:48:08.254Z,15.70
2022-12-25T15:50:53.254Z,16.14
2022-12-25T15:53:38.170Z,14.88
2022-12-25T15:56:23.052Z,15.16
2022-12-25T15:59:08.115Z,15.78
2022-12-25T16:01:53.063Z,16.00
2022-12-25T16:04:38.385Z,15.80
2022-12-25T16:07:23.377Z,15.37
2022-12-25T16:10:08.231Z,15.69
2022-12-25T16:12:53.121Z,16.12
2022-12-25T16:15:37.959Z,17.40
2022-12-25T16:18:22.929Z,16.82
2022-12-25T16:21:07.702Z,16.53
2022-12-25T16:23:52.606Z,15.88
2022-12-25T16:26:37.559Z,16.53
2022-12-25T16:29:22.448Z,16.57
2022-12-25T16:32:07.445Z,18.28
2022-12-25T16:34:52.408Z,17.33
2022-12-25T16:37:37.349Z,17.23
2022-12-25T16:40:22.137Z,17.94
2022-12-25T16:43:07.206Z,18.87
2022-12-25T16:45:52.036Z,20.79
2022-12-25T16:48:37.017Z,18.82
2022-12-25T16:51:21.844Z,18.63
2022-12-25T16:54:06.750Z,18.42
2022-12-25T16:56:51.614Z,18.02
2022-12-25T16:59:36.474Z,18.19
2022-12-25T17:02:21.591Z,18.78
2022-12-25T17:05:06.815Z,19.20
2022-12-25T17:07:51.750Z,19.28
2022-12-25T17:10:36.713Z,19.32
2022-12-25T17:13:21.621Z,20.49
2022-12-25T17:16:06.563Z,30.43
2022-12-25T17:18:51.457Z,40.55
2022-12-25T17:21:36.373Z,71.43
2022-12-25T17:24:21.386Z,61.97
2022-12-25T17:27:06.274Z,29.55
2022-12-25T17:29:51.091Z,15.25
2022-12-25T17:32:36.266Z,31.03
2022-12-25T17:35:21.060Z,16.96
2022-12-25T17:38:06.047Z,17.12
2022-12-25T17:40:51.053Z,24.53
2022-12-25T17:43:36.001Z,19.45
2022-12-25T17:46:21.037Z,18.72
2022-12-25T17:49:06.368Z,16.47
2022-12-25T17:51:51.334Z,17.22
2022-12-25T17:54:36.205Z,15.78
2022-12-25T17:57:21.163Z,22.19
2022-12-25T18:00:06.005Z,22.08
2022-12-25T18:02:51.172Z,21.40
2022-12-25T18:05:36.302Z,30.66
2022-12-25T18:08:21.265Z,32.95
2022-12-25T18:11:06.275Z,17.52
2022-12-25T18:13:51.077Z,21.10
2022-12-25T18:16:36.104Z,17.34
2022-12-25T18:19:21.347Z,21.02
2022-12-25T18:22:06.310Z,13.81
2022-12-25T18:24:51.311Z,11.33
2022-12-25T18:27:36.245Z,13.06
2022-12-25T18:30:21.328Z,12.11
2022-12-25T18:33:06.178Z,15.49
2022-12-25T18:35:51.182Z,16.41
2022-12-25T18:38:36.048Z,18.52
2022-12-25T18:41:21.027Z,15.44
2022-12-25T18:44:06.022Z,11.81
2022-12-25T18:46:50.986Z,11.43
2022-12-25T18:49:36.039Z,11.68
2022-12-25T18:52:48.166Z,13.87
2022-12-25T18:55:25.946Z,15.35
2022-12-25T18:58:10.786Z,14.65
2022-12-25T19:00:55.803Z,14.12
2022-12-25T19:03:41.214Z,14.70
2022-12-25T19:06:26.073Z,14.76
2022-12-25T19:09:11.211Z,15.63
2022-12-25T19:11:55.996Z,15.16
2022-12-25T19:14:47.397Z,13.58
2022-12-25T19:17:33.561Z,15.11
2022-12-25T19:20:18.343Z,16.90
2022-12-25T19:23:03.274Z,17.45
2022-12-25T19:25:48.058Z,16.49
2022-12-25T19:28:32.865Z,15.24
2022-12-25T19:31:17.825Z,14.28
2022-12-25T19:34:02.641Z,15.42
2022-12-25T19:36:47.861Z,13.90
2022-12-25T19:39:32.578Z,13.95
2022-12-25T19:42:17.608Z,14.47
2022-12-25T19:45:02.479Z,19.32
2022-12-25T19:47:47.313Z,23.04
2022-12-25T19:50:32.241Z,20.65
2022-12-25T19:53:17.092Z,18.51
2022-12-25T19:56:02.061Z,14.77
2022-12-25T19:58:47.720Z,14.03
2022-12-25T20:01:33.193Z,13.68
2022-12-25T20:04:18.558Z,15.58
2022-12-25T20:07:03.589Z,17.76
2022-12-25T20:09:48.387Z,18.66
2022-12-25T20:12:33.190Z,14.26
2022-12-25T20:15:18.146Z,13.91
2022-12-25T20:18:02.917Z,13.93
2022-12-25T20:20:48.025Z,14.93
2022-12-25T20:23:32.844Z,15.88
2022-12-25T20:26:17.945Z,21.77
2022-12-25T20:29:02.778Z,23.84
2022-12-25T20:31:47.811Z,33.68
2022-12-25T20:34:33.152Z,14.09
2022-12-25T20:37:18.054Z,24.44
2022-12-25T20:40:02.978Z,20.21
2022-12-25T20:42:47.981Z,22.99
2022-12-25T20:45:33.064Z,25.75
2022-12-25T20:48:18.364Z,24.13
2022-12-25T20:51:03.360Z,23.30
2022-12-25T20:53:48.220Z,19.00
2022-12-25T20:56:33.156Z,16.26
2022-12-25T20:59:18.176Z,18.95
2022-12-25T21:02:03.121Z,14.83
2022-12-25T21:04:53.962Z,14.23
2022-12-25T21:07:39.556Z,13.58
2022-12-25T21:10:24.483Z,13.57
2022-12-25T21:13:09.431Z,14.27
2022-12-25T21:15:54.280Z,13.68
2022-12-25T21:18:39.137Z,17.18
2022-12-25T21:21:23.909Z,17.46
2022-12-25T21:24:08.913Z,13.91
2022-12-25T21:26:53.658Z,13.96
2022-12-25T21:29:38.825Z,13.01
2022-12-25T21:32:23.830Z,12.05
2022-12-25T21:35:08.641Z,13.25
2022-12-25T21:37:53.622Z,13.09
2022-12-25T21:40:38.498Z,12.35
2022-12-25T21:43:23.411Z,12.35
2022-12-25T21:46:08.388Z,11.47
2022-12-25T21:48:53.228Z,11.30
2022-12-25T21:51:38.162Z,14.04
2022-12-25T21:54:23.060Z,13.44
2022-12-25T21:57:07.998Z,13.67
2022-12-25T21:59:52.754Z,13.45
2022-12-25T22:02:38.977Z,13.64
2022-12-25T22:05:24.200Z,14.65
2022-12-25T22:08:09.109Z,15.21
2022-12-25T22:10:53.960Z,15.56
2022-12-25T22:13:38.972Z,16.07
2022-12-25T22:16:23.977Z,15.69
2022-12-25T22:19:08.832Z,14.60
2022-12-25T22:21:53.782Z,13.82
2022-12-25T22:24:38.806Z,13.51
2022-12-25T22:27:23.783Z,13.01
2022-12-25T22:30:08.730Z,12.82
2022-12-25T22:32:53.694Z,12.97
2022-12-25T22:35:38.536Z,12.36
2022-12-25T22:38:23.421Z,12.61
2022-12-25T22:41:08.334Z,11.90
2022-12-25T22:44:16.623Z,11.98
2022-12-25T22:46:58.425Z,11.31
2022-12-25T22:49:43.280Z,11.64
2022-12-25T22:52:28.248Z,11.07
2022-12-25T22:55:13.546Z,11.51
2022-12-25T22:57:58.372Z,11.14
2022-12-25T23:00:46.454Z,11.09
2022-12-25T23:03:31.677Z,11.17
2022-12-25T23:06:17.104Z,10.88
2022-12-25T23:09:02.098Z,10.66
2022-12-25T23:11:46.930Z,10.88
2022-12-25T23:14:31.783Z,11.02
2022-12-25T23:17:16.548Z,11.66
2022-12-25T23:20:01.508Z,11.28
2022-12-25T23:22:46.455Z,11.52
2022-12-25T23:25:31.291Z,11.09
2022-12-25T23:28:16.333Z,11.23
2022-12-25T23:31:01.282Z,11.85
2022-12-25T23:33:46.125Z,11.83
2022-12-25T23:36:31.021Z,11.34
2022-12-25T23:39:15.994Z,11.11
2022-12-25T23:42:00.924Z,11.38
2022-12-25T23:44:46.045Z,11.76
2022-12-25T23:47:31.078Z,11.77
2022-12-25T23:50:15.980Z,11.64
2022-12-25T23:53:00.960Z,11.62
2022-12-25T23:55:50.042Z,11.40
2022-12-25T23:58:38.680Z,11.85
